Time;durP1;ratioP1;P1;durP2;ratioP2;P2;SDS_P1;SDS_P2;PMS_P1;PMS_P2;Temp;Humidity;BMP_temperature;BMP_pressure;BME280_temperature;BME280_humidity;BME280_pressure;Samples;Min_cycle;Max_cycle;Signal;HPM_P1;HPM_P2
2022/11/06 00:01:52;;;;;;;3.67;2.50;;;16.80;66.00;17.70;100863.00;;;;5015309;28;20181;-48
2022/11/06 00:04:18;;;;;;;3.40;2.40;;;16.80;66.00;17.80;100862.00;;;;5015244;28;20199;-48
2022/11/06 00:06:46;;;;;;;5.37;2.80;;;16.80;66.00;17.70;100861.00;;;;5015488;28;20559;-48
2022/11/06 00:09:13;;;;;;;2.70;2.50;;;16.80;66.00;17.80;100829.00;;;;5015362;28;20176;-48
2022/11/06 00:11:40;;;;;;;4.37;2.57;;;16.80;66.00;17.80;100851.00;;;;4998099;28;20204;-48
2022/11/06 00:14:05;;;;;;;3.67;2.73;;;16.80;66.00;17.80;100847.00;;;;5015890;28;20282;-48
2022/11/06 00:16:31;;;;;;;4.47;2.40;;;16.80;66.00;17.80;100856.00;;;;5015319;28;20716;-48
2022/11/06 00:19:00;;;;;;;2.50;2.30;;;16.70;65.80;17.80;100860.00;;;;5015335;28;20239;-48
2022/11/06 00:21:27;;;;;;;3.07;2.50;;;16.80;66.00;17.70;100852.00;;;;5015051;28;20178;-47
2022/11/06 00:23:54;;;;;;;2.67;2.40;;;16.70;65.80;17.70;100844.00;;;;5014908;28;20197;-44
2022/11/06 00:26:23;;;;;;;4.53;2.60;;;16.70;65.90;17.80;100854.00;;;;5015115;28;20533;-48
2022/11/06 00:28:50;;;;;;;2.50;2.30;;;16.70;65.80;17.70;100846.00;;;;5015446;28;20200;-48
2022/11/06 00:31:22;;;;;;;2.70;2.50;;;16.70;65.80;17.70;100849.00;;;;4996760;28;20318;-48
2022/11/06 00:33:47;;;;;;;2.60;2.40;;;16.70;66.00;17.70;100853.00;;;;5014426;28;20629;-48
2022/11/06 00:36:18;;;;;;;3.23;2.30;;;16.70;66.00;17.70;100838.00;;;;5014194;28;20241;-49
2022/11/06 00:38:44;;;;;;;2.63;2.43;;;16.60;65.90;17.70;100852.00;;;;5014101;28;20173;-47
2022/11/06 00:41:14;;;;;;;2.67;2.47;;;16.70;66.00;17.70;100859.00;;;;4996612;28;20179;-47
2022/11/06 00:43:40;;;;;;;3.10;2.40;;;16.60;65.90;17.70;100855.00;;;;5013839;28;20239;-48
2022/11/06 00:46:11;;;;;;;3.10;2.23;;;16.60;65.90;17.70;100858.00;;;;4996241;28;20229;-48
2022/11/06 00:48:37;;;;;;;2.43;2.20;;;16.60;65.90;17.70;100857.00;;;;5014009;28;20174;-47
2022/11/06 00:51:11;;;;;;;2.60;2.40;;;16.60;65.80;17.60;100858.00;;;;5010161;28;20574;-48
2022/11/06 00:53:37;;;;;;;2.77;2.40;;;16.60;65.80;17.60;100859.00;;;;5010885;28;20203;-48
2022/11/06 00:56:09;;;;;;;3.33;2.50;;;16.60;65.90;17.60;100861.00;;;;4993336;28;20207;-47
2022/11/06 00:58:35;;;;;;;2.60;2.40;;;16.60;65.90;17.60;100858.00;;;;4977436;28;20172;-47
2022/11/06 01:01:10;;;;;;;2.40;2.20;;;16.50;65.80;17.60;100858.00;;;;5010995;28;20173;-47
2022/11/06 01:03:37;;;;;;;2.83;2.43;;;16.50;65.90;17.60;100858.00;;;;5010966;28;20198;-48
2022/11/06 01:06:12;;;;;;;2.43;2.23;;;16.50;65.90;17.60;100851.00;;;;4993839;28;20176;-48
2022/11/06 01:08:38;;;;;;;2.50;2.30;;;16.50;65.90;17.60;100855.00;;;;5011020;28;20256;-49
2022/11/06 01:11:09;;;;;;;2.50;2.30;;;16.50;66.00;17.60;100854.00;;;;5010742;28;20752;-48
2022/11/06 01:13:34;;;;;;;2.40;2.20;;;16.50;66.10;17.60;100855.00;;;;5010252;28;20680;-48
2022/11/06 01:16:00;;;;;;;2.30;2.10;;;16.50;66.10;17.60;100849.00;;;;5010730;28;20185;-48
2022/11/06 01:18:26;;;;;;;2.43;2.23;;;16.50;66.10;17.60;100848.00;;;;5010691;28;20197;-48
2022/11/06 01:20:52;;;;;;;2.63;2.43;;;16.50;66.20;17.60;100844.00;;;;5010283;28;20191;-47
2022/11/06 01:23:17;;;;;;;2.47;2.27;;;16.40;66.10;17.60;100824.00;;;;5010283;28;20681;-48
2022/11/06 01:25:43;;;;;;;2.90;2.30;;;16.40;66.10;17.60;100817.00;;;;5010205;28;20202;-47
2022/11/06 01:28:09;;;;;;;2.23;2.03;;;16.40;66.20;17.60;100828.00;;;;5009920;28;20187;-47
2022/11/06 01:30:37;;;;;;;2.43;2.23;;;16.40;66.20;17.50;100838.00;;;;5010257;28;20195;-47
2022/11/06 01:33:03;;;;;;;2.93;2.27;;;16.40;66.20;17.50;100814.00;;;;5009789;28;20192;-48
2022/11/06 01:35:29;;;;;;;2.70;2.50;;;16.40;66.30;17.50;100826.00;;;;5010274;28;20196;-48
2022/11/06 01:37:54;;;;;;;2.40;2.20;;;16.30;66.00;17.50;100820.00;;;;5010291;28;20174;-49
2022/11/06 01:40:20;;;;;;;3.33;2.30;;;16.40;66.20;17.50;100819.00;;;;5010152;28;20664;-49
2022/11/06 01:42:46;;;;;;;2.37;2.17;;;16.30;66.00;17.50;100823.00;;;;5009851;28;20196;-48
2022/11/06 01:45:37;;;;;;;2.40;2.20;;;16.30;66.10;17.50;100814.00;;;;5010454;28;20176;-48
2022/11/06 01:48:04;;;;;;;2.60;2.40;;;16.30;66.10;17.50;100812.00;;;;4976788;28;20152;-48
2022/11/06 01:50:29;;;;;;;3.43;2.20;;;16.30;66.10;17.40;100810.00;;;;4992880;28;20179;-48
2022/11/06 01:52:55;;;;;;;2.17;2.03;;;16.40;66.20;17.50;100809.00;;;;4991965;28;20187;-49
2022/11/06 01:55:25;;;;;;;2.37;2.17;;;16.30;66.10;17.40;100810.00;;;;4975953;28;20209;-48
2022/11/06 01:57:50;;;;;;;2.27;2.10;;;16.30;66.10;17.40;100802.00;;;;5009813;28;20180;-49
2022/11/06 02:00:16;;;;;;;2.97;2.30;;;16.30;66.20;17.40;100795.00;;;;4978132;28;20183;-48
2022/11/06 02:02:42;;;;;;;2.63;2.43;;;16.30;66.20;17.40;100785.00;;;;5011642;28;20191;-48
2022/11/06 02:05:08;;;;;;;2.83;2.10;;;16.30;66.20;17.40;100792.00;;;;4978380;28;20179;-48
2022/11/06 02:07:34;;;;;;;2.20;2.07;;;16.20;66.10;17.40;100783.00;;;;5009918;28;20195;-47
2022/11/06 02:09:59;;;;;;;2.30;2.10;;;16.20;66.20;17.40;100791.00;;;;4975932;28;20258;-49
2022/11/06 02:12:57;;;;;;;2.57;2.37;;;16.20;66.20;17.40;100793.00;;;;5008945;28;20245;-47
2022/11/06 02:15:56;;;;;;;2.20;2.00;;;16.20;66.20;17.40;100787.00;;;;4976590;28;20242;-47
2022/11/06 02:19:11;;;;;;;2.20;2.10;;;16.20;66.20;17.40;100784.00;;;;4991862;28;20819;-46
2022/11/06 02:21:59;;;;;;;2.33;2.13;;;16.20;66.30;17.30;100776.00;;;;5009101;28;20161;-48
2022/11/06 02:24:57;;;;;;;2.20;2.00;;;16.20;66.20;17.30;100775.00;;;;4993742;28;20152;-48
2022/11/06 02:27:23;;;;;;;2.30;2.10;;;16.10;66.20;17.30;100771.00;;;;4976519;28;20243;-47
2022/11/06 02:30:06;;;;;;;2.50;2.30;;;16.10;66.20;17.30;100785.00;;;;4975619;28;20221;-47
2022/11/06 02:32:57;;;;;;;2.00;1.90;;;16.10;66.10;17.30;100793.00;;;;4977616;28;20538;-48
2022/11/06 02:35:29;;;;;;;2.30;2.10;;;16.10;66.10;17.20;100777.00;;;;4991739;28;20283;-47
2022/11/06 02:38:06;;;;;;;2.27;2.07;;;16.10;66.20;17.20;100782.00;;;;4975710;28;20821;-48
2022/11/06 02:40:35;;;;;;;2.20;2.00;;;16.10;66.20;17.30;100789.00;;;;4993013;28;20563;-49
2022/11/06 02:43:04;;;;;;;2.23;2.03;;;16.10;66.40;17.20;100796.00;;;;4991335;28;20267;-47
2022/11/06 02:45:33;;;;;;;2.23;2.03;;;16.10;66.20;17.20;100754.00;;;;4975941;28;20543;-48
2022/11/06 02:47:59;;;;;;;2.10;2.00;;;16.10;66.40;17.20;100784.00;;;;4975476;28;20175;-47
2022/11/06 02:50:29;;;;;;;2.43;2.20;;;16.10;66.40;17.20;100769.00;;;;4975307;28;20847;-47
2022/11/06 02:53:01;;;;;;;2.03;1.93;;;16.00;66.30;17.20;100759.00;;;;4975624;28;20305;-48
2022/11/06 02:55:40;;;;;;;2.40;2.20;;;16.10;66.50;17.20;100766.00;;;;4975043;28;20212;-48
2022/11/06 02:58:34;;;;;;;2.80;2.27;;;16.00;66.40;17.20;100763.00;;;;4976127;28;20183;-48
2022/11/06 03:01:12;;;;;;;2.27;2.07;;;16.00;66.40;17.20;100762.00;;;;4976793;28;20188;-47
2022/11/06 03:03:40;;;;;;;2.23;2.03;;;16.00;66.40;17.10;100772.00;;;;4976256;28;20241;-47
2022/11/06 03:06:18;;;;;;;2.40;2.20;;;16.00;66.30;17.10;100767.00;;;;4974910;28;20176;-47
2022/11/06 03:09:06;;;;;;;2.30;2.10;;;16.00;66.40;17.10;100758.00;;;;4975415;28;20303;-48
2022/11/06 03:11:37;;;;;;;2.30;2.10;;;16.00;66.40;17.10;100766.00;;;;4965544;28;20188;-48
2022/11/06 03:14:31;;;;;;;2.30;2.10;;;16.00;66.40;17.10;100766.00;;;;4975604;28;20230;-47
2022/11/06 03:16:59;;;;;;;2.20;2.00;;;16.00;66.50;17.10;100766.00;;;;4991444;28;20165;-47
2022/11/06 03:19:51;;;;;;;2.30;2.10;;;16.00;66.40;17.10;100765.00;;;;5008227;28;20178;-47
2022/11/06 03:22:37;;;;;;;2.23;2.00;;;15.90;66.40;17.10;100750.00;;;;4990447;28;20203;-49
2022/11/06 03:25:21;;;;;;;2.30;2.10;;;15.90;66.40;17.00;100740.00;;;;4959775;28;20164;-47
2022/11/06 03:28:30;;;;;;;2.30;2.10;;;15.90;66.50;17.00;100746.00;;;;4974570;28;20251;-47
2022/11/06 03:30:58;;;;;;;2.20;2.10;;;15.90;66.40;17.00;100732.00;;;;4976652;28;20279;-48
2022/11/06 03:33:47;;;;;;;2.20;2.00;;;16.00;66.50;17.00;100734.00;;;;4974136;28;20250;-47
2022/11/06 03:36:23;;;;;;;2.10;1.90;;;15.90;66.50;17.00;100736.00;;;;4976199;28;20237;-47
2022/11/06 03:38:59;;;;;;;2.10;1.90;;;15.90;66.50;17.00;100740.00;;;;4974897;28;20601;-48
2022/11/06 03:41:40;;;;;;;2.13;1.93;;;15.90;66.50;17.00;100745.00;;;;4975957;28;20155;-48
2022/11/06 03:44:07;;;;;;;1.97;1.87;;;15.90;66.50;17.00;100771.00;;;;4976347;28;20664;-47
2022/11/06 03:46:36;;;;;;;2.80;2.00;;;15.90;66.50;17.00;100753.00;;;;4974701;28;20178;-46
2022/11/06 03:49:04;;;;;;;2.20;2.00;;;15.80;66.50;17.00;100727.00;;;;4975134;28;20281;-47
2022/11/06 03:51:43;;;;;;;1.97;1.87;;;15.80;66.40;17.00;100760.00;;;;4974640;28;20179;-48
2022/11/06 03:54:25;;;;;;;2.20;2.00;;;15.80;66.40;17.00;100771.00;;;;4974662;28;20578;-47
2022/11/06 03:57:00;;;;;;;2.07;1.97;;;15.80;66.40;16.90;100765.00;;;;5007962;28;20168;-48
2022/11/06 03:59:30;;;;;;;2.10;1.90;;;15.80;66.40;17.00;100769.00;;;;4975147;28;20167;-48
2022/11/06 04:01:56;;;;;;;2.23;2.03;;;15.80;66.40;16.90;100699.00;;;;4990739;28;20851;-47
2022/11/06 04:04:29;;;;;;;2.13;1.80;;;15.80;66.40;16.90;100758.00;;;;4990091;28;20176;-47
2022/11/06 04:07:09;;;;;;;2.17;2.00;;;15.80;66.50;16.90;100747.00;;;;4990308;28;20540;-46
2022/11/06 04:15:14;;;;;;;2.10;1.90;;;15.80;66.60;16.90;100752.00;;;;5008181;28;20266;-47
2022/11/06 04:17:40;;;;;;;1.90;1.80;;;15.70;66.40;16.90;100762.00;;;;4973874;28;20171;-47
2022/11/06 04:20:09;;;;;;;1.90;1.80;;;15.70;66.40;16.90;100749.00;;;;5008086;28;20209;-48
2022/11/06 04:22:47;;;;;;;2.77;2.00;;;15.70;66.40;16.90;100749.00;;;;4974109;28;20544;-50
2022/11/06 04:28:47;;;;;;;5.47;2.00;;;15.70;66.70;16.80;100752.00;;;;5000327;28;20282;-47
2022/11/06 04:32:10;;;;;;;11.33;2.53;;;15.70;67.00;16.80;100746.00;;;;4978426;28;20195;-49
2022/11/06 04:34:46;;;;;;;4.73;2.07;;;15.70;67.10;16.80;100741.00;;;;4944181;28;20746;-47
2022/11/06 04:37:39;;;;;;;2.20;2.00;;;15.70;67.00;16.80;100729.00;;;;4979347;28;20164;-48
2022/11/06 04:40:10;;;;;;;3.30;2.00;;;15.70;66.70;16.60;100733.00;;;;4980592;28;20255;-47
2022/11/06 04:42:49;;;;;;;3.33;2.07;;;15.70;66.60;16.80;100742.00;;;;4977513;28;20627;-48
2022/11/06 04:45:25;;;;;;;2.03;1.90;;;15.70;66.70;16.80;100735.00;;;;4994644;28;20526;-48
2022/11/06 04:47:51;;;;;;;3.63;2.00;;;15.70;66.80;16.90;100733.00;;;;4993724;28;20159;-47
2022/11/06 04:50:17;;;;;;;2.50;2.10;;;15.70;66.70;16.90;100732.00;;;;4977170;28;20522;-47
2022/11/06 04:52:43;;;;;;;2.70;2.10;;;15.70;66.70;16.90;100729.00;;;;4976885;28;20219;-48
2022/11/06 04:55:09;;;;;;;2.83;1.80;;;15.70;66.70;16.90;100719.00;;;;4976744;28;20314;-48
2022/11/06 04:57:34;;;;;;;1.90;1.80;;;15.60;66.40;16.90;100715.00;;;;5010835;28;20194;-47
2022/11/06 05:00:00;;;;;;;1.90;1.80;;;15.70;66.50;16.90;100711.00;;;;5010546;28;20164;-47
2022/11/06 05:02:26;;;;;;;3.03;2.00;;;15.70;66.40;16.90;100696.00;;;;5010576;28;20569;-48
2022/11/06 05:04:51;;;;;;;2.00;1.80;;;15.70;67.20;16.80;100694.00;;;;5010950;28;20183;-47
2022/11/06 05:07:17;;;;;;;2.70;2.00;;;15.70;66.40;16.80;100691.00;;;;5010766;28;20183;-47
2022/11/06 05:09:44;;;;;;;2.20;2.00;;;15.60;66.40;16.80;100695.00;;;;5010601;28;20179;-46
2022/11/06 05:12:10;;;;;;;2.13;1.93;;;15.60;66.40;16.80;100668.00;;;;5010314;28;20179;-49
2022/11/06 05:14:35;;;;;;;2.30;2.07;;;15.60;66.50;16.80;100671.00;;;;5010580;28;20582;-47
2022/11/06 05:17:01;;;;;;;2.00;1.80;;;15.60;66.50;16.80;100678.00;;;;5010704;28;20711;-49
2022/11/06 05:19:27;;;;;;;2.10;1.87;;;15.60;66.40;16.80;100672.00;;;;5010851;28;20179;-46
2022/11/06 05:24:37;;;;;;;3.63;2.10;;;15.60;66.30;16.80;100657.00;;;;4990825;28;20187;-46
2022/11/06 05:27:02;;;;;;;2.50;1.70;;;15.60;66.30;16.80;100655.00;;;;4990917;28;20203;-46
2022/11/06 05:29:28;;;;;;;3.97;2.00;;;15.50;66.20;16.70;100654.00;;;;5007959;28;20824;-48
2022/11/06 05:31:54;;;;;;;2.00;1.90;;;15.50;66.30;16.70;100655.00;;;;5010230;28;20179;-47
2022/11/06 05:34:20;;;;;;;3.77;1.87;;;15.50;66.40;16.70;100648.00;;;;5010453;28;20203;-46
2022/11/06 05:36:46;;;;;;;3.70;1.90;;;15.50;66.20;16.70;100657.00;;;;5009754;28;20190;-48
2022/11/06 05:39:11;;;;;;;3.30;2.03;;;15.50;66.00;16.70;100654.00;;;;5010191;28;20200;-48
2022/11/06 05:41:37;;;;;;;4.17;1.90;;;15.40;65.90;16.70;100636.00;;;;5010063;28;20167;-48
2022/11/06 05:44:03;;;;;;;2.10;1.90;;;15.40;66.10;16.70;100644.00;;;;5010032;28;20191;-48
2022/11/06 05:46:28;;;;;;;2.70;2.10;;;15.40;66.00;16.60;100645.00;;;;5008342;28;20199;-47
2022/11/06 05:48:54;;;;;;;3.70;2.00;;;15.40;66.00;16.60;100645.00;;;;5010239;28;20186;-48
2022/11/06 05:51:20;;;;;;;3.07;2.00;;;15.40;66.10;16.60;100654.00;;;;5010365;28;20175;-47
2022/11/06 05:53:46;;;;;;;5.13;2.10;;;15.40;66.10;16.60;100647.00;;;;5010893;28;20215;-48
2022/11/06 05:56:12;;;;;;;5.43;2.00;;;15.40;66.00;16.60;100634.00;;;;5010434;28;20664;-48
2022/11/06 05:58:37;;;;;;;5.97;2.30;;;15.40;66.00;16.60;100635.00;;;;5010323;28;20628;-48
2022/11/06 06:01:04;;;;;;;5.23;2.10;;;15.40;66.00;16.70;100635.00;;;;5010006;28;20163;-47
2022/11/06 06:03:29;;;;;;;5.17;2.03;;;15.40;65.80;16.60;100636.00;;;;5010046;28;20242;-48
2022/11/06 06:05:55;;;;;;;10.73;2.50;;;15.40;66.00;16.60;100619.00;;;;5009930;28;20167;-47
2022/11/06 06:08:21;;;;;;;7.63;2.40;;;15.40;66.10;16.60;100621.00;;;;5010322;28;20168;-47
2022/11/06 06:10:47;;;;;;;8.47;2.40;;;15.40;66.20;16.60;100615.00;;;;5009974;28;20164;-47
2022/11/06 06:13:13;;;;;;;6.23;2.30;;;15.30;66.10;16.60;100623.00;;;;5009857;28;20226;-47
2022/11/06 06:15:39;;;;;;;4.77;2.43;;;15.30;66.10;16.60;100628.00;;;;4992563;28;20212;-47
2022/11/06 06:18:05;;;;;;;6.87;2.50;;;15.40;66.20;16.60;100614.00;;;;5009706;28;20251;-48
2022/11/06 06:20:31;;;;;;;5.90;2.40;;;15.30;66.10;16.60;100628.00;;;;5009885;28;20740;-48
2022/11/06 06:22:57;;;;;;;6.27;2.80;;;15.30;66.30;16.60;100616.00;;;;5009706;28;20668;-47
2022/11/06 06:25:23;;;;;;;4.30;2.60;;;15.30;66.20;16.60;100605.00;;;;5009819;28;20187;-48
2022/11/06 06:27:49;;;;;;;3.10;2.10;;;15.40;66.30;16.60;100615.00;;;;5009679;28;20533;-48
2022/11/06 06:30:15;;;;;;;6.20;2.63;;;15.30;66.30;16.50;100602.00;;;;5009893;28;20179;-49
2022/11/06 06:32:41;;;;;;;3.90;2.10;;;15.30;66.30;16.50;100595.00;;;;5009126;28;20253;-47
2022/11/06 06:35:07;;;;;;;6.53;2.40;;;15.30;66.40;16.50;100594.00;;;;5009647;28;20287;-48
2022/11/06 06:37:32;;;;;;;4.80;2.10;;;15.30;66.40;16.50;100588.00;;;;4991742;28;20302;-48
2022/11/06 06:39:58;;;;;;;3.63;2.20;;;15.20;66.10;16.50;100594.00;;;;5010014;28;20755;-48
2022/11/06 06:42:24;;;;;;;3.40;2.00;;;15.20;66.20;16.50;100590.00;;;;5009647;28;20574;-48
2022/11/06 06:44:49;;;;;;;4.47;2.60;;;15.30;66.30;16.40;100610.00;;;;5009331;28;20168;-48
2022/11/06 06:47:16;;;;;;;4.80;2.33;;;15.20;66.20;16.40;100596.00;;;;5009091;28;20184;-48
2022/11/06 06:49:43;;;;;;;4.93;2.10;;;15.20;66.30;16.40;100617.00;;;;5008854;28;20229;-49
2022/11/06 06:52:09;;;;;;;3.23;2.10;;;15.20;66.40;16.40;100613.00;;;;5009606;28;20314;-49
2022/11/06 06:54:35;;;;;;;3.53;2.20;;;15.20;66.40;16.40;100616.00;;;;5009449;28;20310;-48
2022/11/06 06:57:00;;;;;;;2.87;2.17;;;15.20;66.40;16.40;100615.00;;;;5008990;28;20283;-48
2022/11/06 06:59:29;;;;;;;3.67;2.07;;;15.20;66.40;16.40;100626.00;;;;5009337;28;20198;-49
2022/11/06 07:01:55;;;;;;;4.37;2.23;;;15.20;66.40;16.40;100637.00;;;;5008910;28;20172;-48
2022/11/06 07:04:21;;;;;;;6.83;2.20;;;15.20;66.20;16.40;100631.00;;;;5008862;28;20222;-48
2022/11/06 07:06:46;;;;;;;3.47;2.30;;;15.20;66.40;16.40;100627.00;;;;5009128;28;20265;-48
2022/11/06 07:09:12;;;;;;;3.50;2.10;;;15.10;66.30;16.40;100623.00;;;;5009208;28;20171;-48
2022/11/06 07:11:38;;;;;;;3.33;2.00;;;15.10;66.30;16.40;100621.00;;;;5009266;28;20223;-48
2022/11/06 07:14:04;;;;;;;3.50;2.10;;;15.10;66.20;16.40;100632.00;;;;5008966;28;20196;-48
2022/11/06 07:16:31;;;;;;;2.97;2.10;;;15.10;66.30;16.40;100624.00;;;;5008579;28;20204;-48
2022/11/06 07:18:57;;;;;;;3.07;2.17;;;15.10;66.20;16.30;100633.00;;;;4991964;28;20191;-48
2022/11/06 07:21:22;;;;;;;2.10;1.90;;;15.10;66.30;16.30;100631.00;;;;5008756;28;20269;-48
2022/11/06 07:23:48;;;;;;;3.20;2.20;;;15.10;66.20;16.30;100613.00;;;;5009522;28;20495;-48
2022/11/06 07:26:14;;;;;;;3.57;2.30;;;15.10;66.20;16.30;100613.00;;;;5009486;28;20202;-48
2022/11/06 07:28:40;;;;;;;3.00;2.00;;;15.10;66.30;16.30;100616.00;;;;5008966;28;20210;-48
2022/11/06 07:31:06;;;;;;;4.00;2.03;;;15.10;66.20;16.30;100576.00;;;;5008662;28;20733;-48
2022/11/06 07:33:32;;;;;;;2.13;1.90;;;15.10;66.20;16.30;100609.00;;;;4991038;28;20282;-49
2022/11/06 07:36:09;;;;;;;2.83;2.00;;;15.10;66.20;16.30;100603.00;;;;5008704;28;20246;-48
2022/11/06 07:38:35;;;;;;;3.10;2.10;;;15.10;66.30;16.30;100625.00;;;;5008809;28;20609;-48
2022/11/06 07:41:06;;;;;;;2.80;2.00;;;15.00;66.20;16.30;100616.00;;;;4991623;28;20186;-47
2022/11/06 07:43:32;;;;;;;2.77;2.00;;;15.00;66.20;16.30;100613.00;;;;5008620;28;20755;-47
2022/11/06 07:46:00;;;;;;;2.77;2.20;;;15.00;66.10;16.20;100621.00;;;;5008321;28;20258;-48
2022/11/06 07:48:26;;;;;;;2.70;2.10;;;15.00;66.10;16.20;100626.00;;;;5008837;28;20176;-47
2022/11/06 07:50:52;;;;;;;2.77;1.87;;;15.00;66.10;16.20;100617.00;;;;5008701;28;20537;-47
2022/11/06 07:53:18;;;;;;;2.20;2.00;;;15.00;66.00;16.20;100620.00;;;;5008367;28;20191;-48
2022/11/06 07:55:51;;;;;;;2.10;1.90;;;15.00;66.00;16.20;100619.00;;;;5008401;28;20184;-48
2022/11/06 07:58:17;;;;;;;3.47;2.00;;;15.00;66.10;16.20;100617.00;;;;5008218;28;20164;-47
2022/11/06 08:00:51;;;;;;;2.47;2.00;;;15.10;66.30;16.20;100623.00;;;;5011615;28;20254;-48
2022/11/06 08:03:16;;;;;;;2.00;1.80;;;15.00;66.10;16.20;100628.00;;;;5012164;28;20202;-48
2022/11/06 08:05:42;;;;;;;7.73;1.97;;;15.00;66.20;16.20;100613.00;;;;5011988;28;20204;-47
2022/11/06 08:08:08;;;;;;;2.37;1.90;;;15.00;66.10;16.20;100621.00;;;;5012261;28;20168;-47
2022/11/06 08:10:36;;;;;;;2.77;2.00;;;15.00;66.20;16.20;100606.00;;;;5012368;28;20547;-47
2022/11/06 08:13:02;;;;;;;2.17;1.97;;;15.00;66.10;16.20;100598.00;;;;5011933;28;20203;-48
2022/11/06 08:15:28;;;;;;;2.00;1.80;;;15.00;66.10;16.20;100604.00;;;;5012340;28;20203;-48
2022/11/06 08:17:53;;;;;;;2.40;2.00;;;15.00;66.10;16.20;100603.00;;;;5012099;28;20699;-48
2022/11/06 08:20:19;;;;;;;2.23;2.03;;;15.00;66.00;16.20;100605.00;;;;5012712;28;20176;-49
2022/11/06 08:22:45;;;;;;;2.17;1.90;;;15.00;66.00;16.20;100595.00;;;;4994572;28;20730;-47
2022/11/06 08:25:10;;;;;;;2.30;2.07;;;15.10;66.10;16.20;100590.00;;;;5012194;28;20226;-47
2022/11/06 08:27:36;;;;;;;2.03;1.90;;;15.00;66.00;16.20;100581.00;;;;5012045;28;20175;-48
2022/11/06 08:30:03;;;;;;;2.93;1.90;;;15.00;65.90;16.20;100592.00;;;;5012480;28;20179;-47
2022/11/06 08:32:29;;;;;;;1.87;1.77;;;15.10;66.10;16.20;100589.00;;;;4994015;28;20222;-49
2022/11/06 08:34:54;;;;;;;2.13;1.90;;;15.10;66.80;16.20;100580.00;;;;5011933;28;20819;-47
2022/11/06 08:37:20;;;;;;;2.70;1.87;;;15.00;65.90;16.20;100586.00;;;;5011728;28;20203;-47
2022/11/06 08:39:46;;;;;;;2.03;1.70;;;15.00;66.00;16.20;100575.00;;;;5011908;28;20168;-47
2022/11/06 08:42:12;;;;;;;2.67;1.90;;;15.00;66.00;16.20;100571.00;;;;5011374;28;20230;-47
2022/11/06 08:44:38;;;;;;;2.50;1.80;;;15.00;66.00;16.20;100578.00;;;;5011716;28;20250;-47
2022/11/06 08:47:04;;;;;;;1.80;1.70;;;15.00;66.00;16.20;100578.00;;;;5011769;28;20233;-48
2022/11/06 08:49:30;;;;;;;2.87;1.90;;;15.00;66.00;16.20;100573.00;;;;5011952;28;20198;-48
2022/11/06 08:51:55;;;;;;;3.13;1.93;;;15.00;66.00;16.20;100570.00;;;;5011154;28;20548;-47
2022/11/06 08:54:21;;;;;;;2.17;1.97;;;15.00;66.00;16.20;100565.00;;;;5011591;28;20218;-47
2022/11/06 08:56:47;;;;;;;1.70;1.60;;;15.10;66.30;16.20;100554.00;;;;5011310;28;20164;-49
2022/11/06 08:59:13;;;;;;;2.20;1.80;;;15.00;66.20;16.10;100565.00;;;;5011526;28;20173;-47
2022/11/06 09:01:39;;;;;;;2.20;2.00;;;15.00;66.10;16.10;100559.00;;;;5011151;28;20171;-48
2022/11/06 09:04:05;;;;;;;3.27;2.03;;;15.00;66.30;16.10;100559.00;;;;5011610;28;20818;-48
2022/11/06 09:06:30;;;;;;;3.57;2.00;;;15.00;66.30;16.10;100557.00;;;;5011730;28;20172;-50
2022/11/06 09:08:56;;;;;;;3.73;1.97;;;15.00;67.80;16.20;100558.00;;;;4993066;28;20179;-48
2022/11/06 09:11:22;;;;;;;5.33;2.10;;;15.00;66.60;16.10;100550.00;;;;4967669;28;20706;-49
2022/11/06 09:13:48;;;;;;;2.97;2.00;;;15.00;66.80;16.10;100555.00;;;;4992917;28;20334;-49
2022/11/06 09:16:13;;;;;;;3.13;2.00;;;15.00;66.80;16.10;100546.00;;;;5010039;28;20226;-50
2022/11/06 09:18:39;;;;;;;3.50;2.00;;;15.10;67.00;16.10;100539.00;;;;5010616;28;20227;-50
2022/11/06 09:21:05;;;;;;;5.10;2.00;;;15.00;66.80;16.10;100488.00;;;;5010117;28;20631;-50
2022/11/06 09:23:30;;;;;;;2.63;1.80;;;15.00;66.70;16.10;100533.00;;;;4992529;28;20605;-50
2022/11/06 09:25:57;;;;;;;1.83;1.67;;;15.00;66.70;16.10;100532.00;;;;5009311;28;20200;-51
2022/11/06 09:28:23;;;;;;;3.20;1.63;;;15.10;66.80;16.10;100530.00;;;;5009216;28;20199;-50
2022/11/06 09:30:48;;;;;;;1.97;1.80;;;15.00;66.80;16.10;100522.00;;;;5009139;28;20554;-50
2022/11/06 09:33:14;;;;;;;2.77;2.00;;;15.00;66.80;16.10;100512.00;;;;5009900;28;20187;-49
2022/11/06 09:35:40;;;;;;;3.07;2.00;;;15.00;66.80;16.10;100516.00;;;;5010056;28;20191;-50
2022/11/06 09:38:14;;;;;;;1.80;1.70;;;15.00;67.00;16.10;100500.00;;;;5009731;28;20168;-50
2022/11/06 09:40:50;;;;;;;1.90;1.67;;;15.00;67.00;16.10;100503.00;;;;5010542;28;20218;-50
2022/11/06 09:44:01;;;;;;;1.93;1.70;;;15.00;67.00;16.10;100504.00;;;;4992634;28;20692;-51
2022/11/06 09:46:31;;;;;;;3.00;2.00;;;15.10;67.20;16.10;100497.00;;;;4992368;28;20640;-50
2022/11/06 09:49:17;;;;;;;1.77;1.67;;;15.10;67.10;16.10;100490.00;;;;4993113;28;20225;-49
2022/11/06 09:51:55;;;;;;;2.27;1.87;;;15.10;67.20;16.10;100496.00;;;;5009378;28;20160;-50
2022/11/06 09:54:39;;;;;;;2.27;1.80;;;15.10;67.20;16.10;100495.00;;;;5010024;28;20642;-49
2022/11/06 09:57:12;;;;;;;2.30;2.00;;;15.10;67.20;16.10;100495.00;;;;4992237;28;20817;-50
2022/11/06 09:59:40;;;;;;;2.97;2.07;;;15.00;67.20;16.10;100489.00;;;;4960593;28;20719;-50
2022/11/06 10:02:28;;;;;;;2.07;1.83;;;15.10;67.40;16.10;100490.00;;;;4992406;28;20206;-49
2022/11/06 10:05:05;;;;;;;4.20;1.83;;;15.10;67.60;16.10;100479.00;;;;4973586;28;20184;-50
2022/11/06 10:07:39;;;;;;;5.23;2.10;;;15.00;67.70;16.10;100472.00;;;;4988821;28;20168;-51
2022/11/06 10:10:07;;;;;;;7.30;2.27;;;15.10;68.20;16.10;100474.00;;;;4945429;28;20660;-51
2022/11/06 10:12:44;;;;;;;6.07;2.20;;;15.10;68.30;15.90;100470.00;;;;4975957;28;20246;-49
2022/11/06 10:15:33;;;;;;;21.77;2.30;;;15.10;68.40;16.10;100467.00;;;;4993707;28;20187;-49
2022/11/06 10:18:34;;;;;;;5.70;2.23;;;15.10;68.40;16.10;100452.00;;;;4977808;28;20631;-50
2022/11/06 10:21:42;;;;;;;8.60;2.20;;;15.10;69.10;16.20;100459.00;;;;4970744;28;20211;-50
2022/11/06 10:24:20;;;;;;;8.50;2.70;;;15.10;68.20;16.10;100456.00;;;;4948549;29;20685;-50
2022/11/06 10:26:53;;;;;;;7.60;2.43;;;15.20;68.30;16.10;100441.00;;;;4985129;28;20289;-49
2022/11/06 10:30:13;;;;;;;10.77;2.50;;;15.10;68.10;16.10;100447.00;;;;4960332;28;20222;-49
2022/11/06 10:33:16;;;;;;;6.43;2.27;;;15.10;68.00;16.10;100455.00;;;;4995351;28;20212;-50
2022/11/06 10:35:48;;;;;;;10.10;2.37;;;15.10;68.20;16.10;100442.00;;;;4995500;28;20212;-49
2022/11/06 10:38:42;;;;;;;7.70;2.50;;;15.10;68.20;16.10;100437.00;;;;4991701;28;20164;-49
2022/11/06 10:41:37;;;;;;;7.43;2.43;;;15.10;68.10;16.10;100442.00;;;;4973890;28;20183;-50
2022/11/06 10:44:05;;;;;;;6.50;2.43;;;15.10;68.20;16.10;100441.00;;;;4996881;28;20740;-49
2022/11/06 10:46:49;;;;;;;4.63;2.40;;;15.10;68.10;16.10;100433.00;;;;5007833;28;20180;-49
2022/11/06 10:49:45;;;;;;;6.80;2.40;;;15.10;68.20;16.10;100426.00;;;;4959812;28;20270;-49
2022/11/06 10:52:30;;;;;;;3.23;2.23;;;15.20;68.10;16.10;100425.00;;;;5008808;28;20543;-50
2022/11/06 10:55:46;;;;;;;4.23;2.50;;;15.10;68.20;16.20;100418.00;;;;4993697;28;20211;-50
2022/11/06 10:58:22;;;;;;;10.67;3.13;;;15.20;68.20;16.20;100402.00;;;;5008280;28;20263;-52
2022/11/06 11:00:51;;;;;;;17.63;3.10;;;15.20;68.40;16.20;100405.00;;;;4991659;28;20529;-49
2022/11/06 11:03:25;;;;;;;14.87;2.70;;;15.30;68.60;16.20;100390.00;;;;4991894;28;20192;-50
2022/11/06 11:05:51;;;;;;;10.70;2.77;;;15.40;68.60;16.30;100383.00;;;;5008688;28;20256;-50
2022/11/06 11:08:42;;;;;;;14.07;2.60;;;15.50;68.30;16.30;100384.00;;;;5009102;28;20263;-49
2022/11/06 11:11:17;;;;;;;17.60;3.00;;;15.70;68.60;16.40;100394.00;;;;4934970;28;20191;-50
2022/11/06 11:14:10;;;;;;;17.43;2.97;;;15.70;68.40;16.50;100394.00;;;;5008650;28;20614;-50
2022/11/06 11:16:41;;;;;;;14.57;2.80;;;15.90;68.20;16.60;100385.00;;;;4973714;28;20184;-49
2022/11/06 11:19:24;;;;;;;8.40;2.87;;;16.10;68.70;16.70;100377.00;;;;4990996;28;20199;-49